Time;durP1;ratioP1;P1;durP2;ratioP2;P2;SDS_P1;SDS_P2;PMS_P1;PMS_P2;Temp;Humidity;BMP_temperature;BMP_pressure;BME280_temperature;BME280_humidity;BME280_pressure;Samples;Min_cycle;Max_cycle;Signal;HPM_P1;HPM_P2
2024/01/20 00:02:26;;;;;;;;;41.50;37.75;;;;;1.60;85.43;102433.31;5066863;28;11533;-67
2024/01/20 00:04:53;;;;;;;;;38.25;35.25;;;;;1.60;85.60;102432.44;5064278;28;11559;-68
2024/01/20 00:07:20;;;;;;;;;43.00;41.75;;;;;1.58;85.87;102435.22;5069602;28;11602;-65
2024/01/20 00:09:46;;;;;;;;;43.00;37.25;;;;;1.57;85.50;102435.28;5069644;28;11530;-65
2024/01/20 00:12:18;;;;;;;;;45.25;38.75;;;;;1.57;85.15;102441.44;5068454;28;11568;-64
2024/01/20 00:14:45;;;;;;;;;49.00;39.25;;;;;1.54;85.37;102438.13;5062954;28;12258;-65
2024/01/20 00:17:13;;;;;;;;;47.00;44.50;;;;;1.50;85.96;102437.50;5068872;28;12381;-65
2024/01/20 00:19:52;;;;;;;;;44.50;40.00;;;;;1.53;85.86;102439.09;5058246;28;11683;-67
2024/01/20 00:22:21;;;;;;;;;52.75;47.25;;;;;1.45;85.61;102439.56;5067213;28;11616;-66
2024/01/20 00:24:49;;;;;;;;;56.00;48.50;;;;;1.34;85.80;102442.06;5063446;28;11581;-66
2024/01/20 00:27:16;;;;;;;;;48.00;46.00;;;;;1.35;86.28;102436.66;5070382;28;11919;-67
2024/01/20 00:29:44;;;;;;;;;45.75;41.75;;;;;1.40;86.19;102447.81;5085890;28;11562;-68
2024/01/20 00:32:10;;;;;;;;;50.75;44.50;;;;;1.41;86.20;102441.56;5068945;28;11550;-67
2024/01/20 00:34:37;;;;;;;;;58.50;45.50;;;;;1.44;85.83;102451.97;5060291;28;11589;-67
2024/01/20 00:37:24;;;;;;;;;49.75;46.00;;;;;1.38;85.58;102449.72;5068856;28;11611;-66
2024/01/20 00:39:51;;;;;;;;;52.00;46.25;;;;;1.38;86.23;102454.19;5069339;28;11559;-66
2024/01/20 00:42:17;;;;;;;;;57.75;49.50;;;;;1.36;85.83;102446.31;5069954;28;11664;-67
2024/01/20 00:44:44;;;;;;;;;59.50;51.50;;;;;1.27;86.22;102457.50;5068052;28;11631;-66
2024/01/20 00:47:10;;;;;;;;;45.50;43.50;;;;;1.29;86.20;102458.22;5067041;28;11555;-65
2024/01/20 00:49:37;;;;;;;;;65.00;52.00;;;;;1.24;85.93;102457.66;5068860;28;11551;-67
2024/01/20 00:52:06;;;;;;;;;52.50;46.75;;;;;1.27;86.25;102448.69;5064224;28;11555;-65
2024/01/20 00:54:32;;;;;;;;;55.75;44.00;;;;;1.27;86.04;102452.19;5062175;28;11582;-65
2024/01/20 00:56:59;;;;;;;;;63.50;50.75;;;;;1.19;85.86;102457.09;5068039;28;11651;-68
2024/01/20 00:59:25;;;;;;;;;61.75;48.50;;;;;1.23;86.31;102455.97;5070275;28;11577;-68
2024/01/20 01:01:52;;;;;;;;;68.75;52.25;;;;;1.21;86.24;102449.88;5070525;28;11664;-66
2024/01/20 01:04:19;;;;;;;;;64.50;51.50;;;;;1.21;86.25;102460.50;5067870;28;11599;-65
2024/01/20 01:06:45;;;;;;;;;57.75;49.50;;;;;1.21;86.39;102456.03;5065582;28;11595;-67
2024/01/20 01:09:12;;;;;;;;;64.50;50.25;;;;;1.20;85.92;102467.59;5064118;28;11551;-69
2024/01/20 01:11:39;;;;;;;;;61.75;50.25;;;;;1.19;85.94;102473.03;5064966;28;11568;-67
2024/01/20 01:14:05;;;;;;;;;54.75;43.50;;;;;1.26;85.95;102466.41;5050259;28;11648;-68
2024/01/20 01:16:32;;;;;;;;;62.75;48.50;;;;;1.24;86.13;102473.59;5063906;28;12356;-66
2024/01/20 01:18:58;;;;;;;;;57.00;49.25;;;;;1.26;85.84;102469.06;5068341;28;12232;-67
2024/01/20 01:21:25;;;;;;;;;56.75;45.75;;;;;1.22;86.01;102476.34;5062631;28;12306;-67
2024/01/20 01:23:52;;;;;;;;;59.00;48.25;;;;;1.29;86.07;102470.66;5063205;28;11578;-67
2024/01/20 01:26:19;;;;;;;;;64.25;52.25;;;;;1.18;85.73;102476.63;5068705;28;11566;-66
2024/01/20 01:28:46;;;;;;;;;71.25;54.00;;;;;1.19;86.36;102480.97;5069521;28;11582;-66
2024/01/20 01:31:13;;;;;;;;;52.25;48.00;;;;;1.23;86.10;102485.16;5067971;28;11574;-66
2024/01/20 01:33:39;;;;;;;;;69.50;55.50;;;;;1.19;86.14;102479.19;5067429;28;12298;-67
2024/01/20 01:36:06;;;;;;;;;52.00;46.50;;;;;1.21;85.68;102484.38;5061961;28;11664;-68
2024/01/20 01:38:33;;;;;;;;;65.75;51.00;;;;;1.18;85.93;102489.88;5061760;28;11681;-68
2024/01/20 01:41:00;;;;;;;;;65.25;52.25;;;;;1.16;85.98;102479.34;5069157;28;11754;-67
2024/01/20 01:43:27;;;;;;;;;53.50;47.75;;;;;1.12;86.10;102480.47;5071982;28;11645;-67
2024/01/20 01:45:53;;;;;;;;;61.50;51.50;;;;;1.10;85.94;102485.03;5066857;28;11575;-67
2024/01/20 01:48:22;;;;;;;;;56.50;48.75;;;;;1.18;86.12;102484.59;5068421;28;11772;-67
2024/01/20 01:50:49;;;;;;;;;60.25;48.25;;;;;1.22;85.88;102489.59;5050552;28;11604;-64
2024/01/20 01:53:16;;;;;;;;;59.25;48.25;;;;;1.17;85.94;102485.50;5052825;28;11560;-65
2024/01/20 01:55:46;;;;;;;;;54.50;45.00;;;;;1.19;85.52;102478.31;5069077;28;11533;-67
2024/01/20 01:58:13;;;;;;;;;55.50;46.25;;;;;1.15;85.92;102480.31;5068140;28;11649;-67
2024/01/20 02:00:39;;;;;;;;;63.50;48.50;;;;;1.14;86.07;102485.72;5067895;28;11590;-69
2024/01/20 02:03:08;;;;;;;;;66.00;50.25;;;;;1.12;85.99;102484.94;5050276;28;12407;-67
2024/01/20 02:05:35;;;;;;;;;64.25;49.00;;;;;1.13;85.80;102481.34;5065659;28;11581;-68
2024/01/20 02:08:02;;;;;;;;;53.00;43.50;;;;;1.15;85.70;102482.09;5064856;28;11567;-66
2024/01/20 02:10:30;;;;;;;;;59.00;50.75;;;;;1.13;85.38;102481.34;5061672;28;11745;-65
2024/01/20 02:12:58;;;;;;;;;57.75;49.75;;;;;1.03;85.69;102481.03;5047227;28;11599;-66
2024/01/20 02:15:27;;;;;;;;;57.50;49.00;;;;;1.06;85.94;102482.66;5045960;28;11558;-65
2024/01/20 02:17:55;;;;;;;;;59.00;51.00;;;;;0.91;85.44;102482.63;5067654;28;11749;-65
2024/01/20 02:20:23;;;;;;;;;54.75;47.00;;;;;0.82;86.16;102490.28;5067582;28;11556;-65
2024/01/20 02:22:50;;;;;;;;;54.25;47.50;;;;;0.88;86.33;102492.56;5058704;28;12303;-67
2024/01/20 02:25:17;;;;;;;;;61.00;47.25;;;;;0.89;85.85;102495.13;5053652;28;11556;-65
2024/01/20 02:27:44;;;;;;;;;55.75;45.25;;;;;0.88;86.19;102496.06;5061686;28;11558;-65
2024/01/20 02:30:11;;;;;;;;;60.00;52.00;;;;;0.84;85.79;102491.03;5073001;28;11591;-65
2024/01/20 02:32:37;;;;;;;;;49.25;44.00;;;;;0.84;86.46;102493.69;5048097;28;11560;-65
2024/01/20 02:35:05;;;;;;;;;51.00;46.25;;;;;0.86;86.27;102492.66;5062422;28;11560;-67
2024/01/20 02:37:32;;;;;;;;;63.25;48.25;;;;;0.88;86.27;102497.84;5065624;28;11627;-64
2024/01/20 02:39:59;;;;;;;;;62.00;51.33;;;;;0.81;85.94;102497.38;5062542;28;11606;-65
2024/01/20 02:42:25;;;;;;;;;64.25;47.75;;;;;0.85;85.86;102511.28;5061973;28;11565;-65
2024/01/20 02:44:52;;;;;;;;;50.25;46.25;;;;;0.82;85.99;102506.19;5057992;28;11601;-67
2024/01/20 02:47:19;;;;;;;;;62.67;51.67;;;;;0.86;86.15;102503.25;5082872;28;11589;-66
2024/01/20 02:49:46;;;;;;;;;66.67;49.33;;;;;0.86;85.75;102497.09;5068727;28;11577;-65
2024/01/20 02:52:12;;;;;;;;;59.50;48.00;;;;;0.88;86.29;102504.00;5071814;28;11576;-64
2024/01/20 02:54:39;;;;;;;;;60.00;49.00;;;;;0.92;85.89;102499.38;5071630;28;11595;-64
2024/01/20 02:57:06;;;;;;;;;60.50;48.00;;;;;0.90;86.08;102502.13;5060943;28;11611;-64
2024/01/20 02:59:33;;;;;;;;;58.50;44.25;;;;;0.87;86.22;102504.97;5070973;28;11657;-64
2024/01/20 03:02:02;;;;;;;;;54.00;47.25;;;;;0.85;85.87;102511.28;5070899;28;11564;-64
2024/01/20 03:04:29;;;;;;;;;58.75;49.00;;;;;0.85;85.75;102517.47;5068254;28;11638;-64
2024/01/20 03:06:56;;;;;;;;;70.50;54.75;;;;;0.83;86.16;102515.84;5072101;28;11654;-67
2024/01/20 03:09:22;;;;;;;;;49.50;46.50;;;;;0.74;85.99;102519.88;5070552;28;12350;-65
2024/01/20 03:11:49;;;;;;;;;65.00;53.25;;;;;0.62;85.85;102510.84;5067653;28;11578;-64
2024/01/20 03:14:15;;;;;;;;;54.25;46.50;;;;;0.63;86.97;102509.03;5049632;28;11582;-65
2024/01/20 03:16:42;;;;;;;;;50.50;46.50;;;;;0.60;86.38;102517.16;5072008;28;11555;-64
2024/01/20 03:19:09;;;;;;;;;53.75;42.75;;;;;0.63;86.40;102522.28;5085853;28;11682;-64
2024/01/20 03:21:35;;;;;;;;;59.50;44.25;;;;;0.59;86.89;102518.13;5066221;28;11573;-64
2024/01/20 03:24:02;;;;;;;;;59.75;48.25;;;;;0.58;86.74;102516.41;5061678;28;11643;-65
2024/01/20 03:26:29;;;;;;;;;66.33;51.00;;;;;0.49;86.67;102518.66;5062683;28;12281;-62
2024/01/20 03:28:55;;;;;;;;;61.75;48.50;;;;;0.48;86.47;102519.56;5071402;28;11682;-62
2024/01/20 03:31:22;;;;;;;;;58.25;48.00;;;;;0.45;86.29;102519.78;5069992;28;11684;-66
2024/01/20 03:33:49;;;;;;;;;58.50;48.75;;;;;0.46;86.66;102526.75;5065775;28;11715;-65
2024/01/20 03:36:15;;;;;;;;;53.25;47.25;;;;;0.53;86.62;102526.41;5065248;23;11749;-68
2024/01/20 03:38:42;;;;;;;;;58.75;47.75;;;;;0.52;86.74;102528.19;5031023;28;11625;-69
2024/01/20 03:41:08;;;;;;;;;59.00;44.75;;;;;0.49;86.14;102523.94;5032105;28;11689;-68
2024/01/20 03:43:35;;;;;;;;;52.00;44.75;;;;;0.53;86.26;102515.81;5029259;28;11555;-68
2024/01/20 03:46:02;;;;;;;;;58.00;46.75;;;;;0.45;86.31;102522.41;5032429;28;11745;-69
2024/01/20 03:48:29;;;;;;;;;56.00;44.00;;;;;0.53;86.59;102526.41;5033080;28;11614;-69
2024/01/20 03:50:56;;;;;;;;;57.75;44.00;;;;;0.50;86.50;102524.81;5031796;28;11742;-69
2024/01/20 03:53:22;;;;;;;;;62.25;49.50;;;;;0.49;86.12;102518.66;5024669;28;11643;-65
2024/01/20 03:55:49;;;;;;;;;64.75;49.50;;;;;0.57;86.57;102525.28;5026946;28;11603;-67
2024/01/20 03:58:15;;;;;;;;;53.75;46.00;;;;;0.54;86.46;102522.84;5032237;28;11710;-68
2024/01/20 04:00:43;;;;;;;;;53.00;44.50;;;;;0.49;86.33;102531.91;5018817;28;12370;-69
2024/01/20 04:03:10;;;;;;;;;53.00;46.75;;;;;0.55;86.51;102530.69;5014789;28;11592;-69
2024/01/20 04:05:39;;;;;;;;;53.00;45.00;;;;;0.57;86.44;102528.81;5030544;28;11587;-66
2024/01/20 04:08:05;;;;;;;;;53.25;46.75;;;;;0.60;86.15;102525.13;5025005;28;11648;-68
2024/01/20 04:10:32;;;;;;;;;58.50;47.50;;;;;0.59;86.20;102526.06;5025432;28;11588;-69
2024/01/20 04:12:58;;;;;;;;;53.00;42.00;;;;;0.60;86.15;102519.81;5029159;28;11578;-67
2024/01/20 04:15:25;;;;;;;;;46.25;42.50;;;;;0.57;86.55;102533.22;5029468;28;11748;-68
2024/01/20 04:17:52;;;;;;;;;62.00;48.25;;;;;0.56;86.27;102532.38;5015021;28;11711;-69
2024/01/20 04:20:19;;;;;;;;;60.75;47.00;;;;;0.52;86.19;102530.00;5016146;28;11607;-69
2024/01/20 04:22:46;;;;;;;;;49.75;43.25;;;;;0.57;86.53;102536.75;5022799;28;11609;-67
2024/01/20 04:25:13;;;;;;;;;63.50;48.00;;;;;0.50;85.98;102548.66;5020833;28;11574;-69
2024/01/20 04:27:42;;;;;;;;;57.00;48.75;;;;;0.50;86.05;102553.94;5030599;28;11695;-69
2024/01/20 04:30:11;;;;;;;;;54.50;47.00;;;;;0.41;86.36;102557.97;5031049;28;11579;-69
2024/01/20 04:32:37;;;;;;;;;60.25;45.75;;;;;0.42;86.84;102556.16;5012535;28;11608;-68
2024/01/20 04:35:05;;;;;;;;;51.25;44.00;;;;;0.40;86.48;102563.34;5021253;28;11577;-67
2024/01/20 04:37:32;;;;;;;;;48.00;44.25;;;;;0.42;86.68;102561.47;5030933;28;11589;-68
2024/01/20 04:40:00;;;;;;;;;65.25;49.00;;;;;0.44;86.71;102564.88;5030665;28;11693;-69
2024/01/20 04:42:26;;;;;;;;;55.75;48.25;;;;;0.42;86.01;102561.47;5031604;28;11583;-65
2024/01/20 04:44:53;;;;;;;;;58.25;49.25;;;;;0.41;86.68;102559.78;5024934;28;11689;-69
2024/01/20 04:47:19;;;;;;;;;57.75;46.00;;;;;0.43;86.51;102576.41;5032006;28;11698;-69
2024/01/20 04:49:48;;;;;;;;;54.00;47.50;;;;;0.33;86.44;102562.00;5022045;28;11610;-69
2024/01/20 04:52:15;;;;;;;;;61.75;47.00;;;;;0.33;86.82;102565.50;5023830;28;11751;-66
2024/01/20 04:54:41;;;;;;;;;59.50;48.50;;;;;0.36;86.56;102573.25;5028569;28;11707;-69
2024/01/20 04:57:08;;;;;;;;;60.50;46.25;;;;;0.34;86.97;102567.19;5031821;28;12265;-69
2024/01/20 04:59:35;;;;;;;;;50.00;45.00;;;;;0.36;86.87;102556.50;5031434;28;11649;-68
2024/01/20 05:02:02;;;;;;;;;61.00;47.75;;;;;0.38;86.53;102559.94;5016457;28;12328;-69
2024/01/20 05:04:29;;;;;;;;;59.50;50.00;;;;;0.42;86.33;102562.31;5030200;28;11611;-68
2024/01/20 05:06:55;;;;;;;;;54.00;47.25;;;;;0.45;86.93;102567.47;5022691;28;12314;-69
2024/01/20 05:09:22;;;;;;;;;51.00;40.25;;;;;0.48;86.58;102566.41;5030833;28;11683;-69
2024/01/20 05:11:49;;;;;;;;;45.00;40.75;;;;;0.49;86.23;102566.34;5027590;28;11596;-69
2024/01/20 05:14:15;;;;;;;;;51.50;46.25;;;;;0.46;86.49;102576.25;5030735;28;11611;-68
2024/01/20 05:16:42;;;;;;;;;53.25;42.75;;;;;0.38;86.26;102570.53;5029762;28;11724;-69
2024/01/20 05:19:09;;;;;;;;;44.25;42.00;;;;;0.38;86.31;102574.03;5013445;28;11622;-68
2024/01/20 05:21:37;;;;;;;;;50.50;42.25;;;;;0.33;86.38;102572.59;5024609;28;11622;-69
2024/01/20 05:24:05;;;;;;;;;43.75;41.00;;;;;0.28;86.56;102575.47;5026868;28;11603;-69
2024/01/20 05:26:31;;;;;;;;;45.25;38.00;;;;;0.33;86.22;102575.25;5022005;28;11589;-66
2024/01/20 05:28:59;;;;;;;;;49.75;40.50;;;;;0.32;86.07;102582.31;5029760;28;11681;-67
2024/01/20 05:31:31;;;;;;;;;54.25;44.50;;;;;0.25;86.09;102583.59;5019462;28;11607;-67
2024/01/20 05:33:58;;;;;;;;;61.00;43.75;;;;;0.21;86.38;102568.81;5023777;28;11727;-67
2024/01/20 05:36:26;;;;;;;;;53.50;47.00;;;;;0.15;86.25;102564.69;5026602;28;11586;-67
2024/01/20 05:38:53;;;;;;;;;50.00;45.25;;;;;0.14;86.43;102570.94;5026849;28;11602;-68
2024/01/20 05:41:19;;;;;;;;;55.00;45.50;;;;;0.15;86.84;102570.00;5030632;28;11712;-68
2024/01/20 05:43:46;;;;;;;;;46.00;41.75;;;;;0.21;86.72;102574.13;5030778;28;11563;-67
2024/01/20 05:46:13;;;;;;;;;49.00;44.50;;;;;0.19;86.38;102578.63;5028169;28;11616;-67
2024/01/20 05:48:39;;;;;;;;;51.00;46.25;;;;;0.11;86.71;102586.13;5030063;28;11575;-67
2024/01/20 05:51:06;;;;;;;;;46.50;40.00;;;;;0.16;86.54;102582.31;5026496;28;11626;-66
2024/01/20 05:53:33;;;;;;;;;55.25;46.00;;;;;0.12;86.98;102583.44;5030493;28;11698;-67
2024/01/20 05:56:00;;;;;;;;;54.75;46.25;;;;;0.15;86.93;102583.22;5016999;28;11618;-66
2024/01/20 05:58:26;;;;;;;;;51.50;42.25;;;;;0.16;87.07;102586.72;5026057;28;11583;-67
2024/01/20 06:00:54;;;;;;;;;49.00;40.25;;;;;0.04;87.02;102583.00;5028334;28;11724;-67
2024/01/20 06:03:21;;;;;;;;;51.25;45.00;;;;;-0.03;86.94;102593.03;5028908;28;11578;-67
2024/01/20 06:05:48;;;;;;;;;48.25;44.00;;;;;-0.01;87.56;102591.16;5023245;28;12289;-66
2024/01/20 06:08:15;;;;;;;;;51.00;39.25;;;;;0.01;87.31;102590.25;5024916;28;11669;-67
2024/01/20 06:10:42;;;;;;;;;50.75;41.25;;;;;0.05;87.14;102582.03;5028307;28;11633;-67
2024/01/20 06:13:08;;;;;;;;;49.25;40.50;;;;;0.00;87.07;102586.75;5025872;28;11593;-67
2024/01/20 06:15:35;;;;;;;;;49.50;43.75;;;;;0.01;87.36;102585.78;5027953;28;11659;-66
2024/01/20 06:18:02;;;;;;;;;50.75;42.50;;;;;0.01;86.87;102592.88;5030196;28;12330;-67
2024/01/20 06:20:28;;;;;;;;;41.50;39.25;;;;;0.04;87.34;102598.00;5028179;28;11619;-68
2024/01/20 06:22:55;;;;;;;;;50.75;40.75;;;;;0.08;87.76;102595.13;5023847;28;11601;-66
2024/01/20 06:25:21;;;;;;;;;46.00;42.00;;;;;0.09;87.00;102588.88;5029489;28;11572;-67
2024/01/20 06:27:48;;;;;;;;;48.00;45.25;;;;;-0.05;87.15;102594.03;5026638;28;11740;-68
2024/01/20 06:30:15;;;;;;;;;47.00;42.50;;;;;-0.06;87.24;102608.22;5029837;28;11598;-68
2024/01/20 06:32:41;;;;;;;;;37.50;34.75;;;;;-0.04;87.52;102611.63;5028152;28;11629;-66
2024/01/20 06:35:08;;;;;;;;;43.50;34.75;;;;;-0.07;87.32;102609.16;5017491;28;11610;-68
2024/01/20 06:37:35;;;;;;;;;49.25;39.50;;;;;-0.12;87.89;102625.31;5030132;28;11575;-68
2024/01/20 06:40:02;;;;;;;;;42.50;37.25;;;;;-0.11;87.69;102618.22;5023814;28;11597;-68
2024/01/20 06:42:28;;;;;;;;;46.00;36.50;;;;;-0.07;87.69;102620.63;5028304;28;11718;-68
2024/01/20 06:44:55;;;;;;;;;48.25;40.50;;;;;-0.02;87.70;102613.28;5023815;28;11579;-67
2024/01/20 06:47:25;;;;;;;;;42.50;39.50;;;;;-0.06;87.20;102601.13;5029033;28;11587;-67
2024/01/20 06:49:53;;;;;;;;;44.75;40.00;;;;;-0.02;87.64;102610.63;5020791;28;11660;-67
2024/01/20 06:52:20;;;;;;;;;38.25;37.00;;;;;-0.06;87.76;102609.09;5029329;28;11623;-67
2024/01/20 06:54:48;;;;;;;;;48.75;37.75;;;;;-0.12;88.00;102604.13;5028832;28;11705;-68
2024/01/20 06:57:14;;;;;;;;;42.25;34.00;;;;;-0.13;87.82;102607.69;5014706;28;12294;-67
2024/01/20 06:59:42;;;;;;;;;43.25;39.25;;;;;-0.12;88.06;102613.84;5015623;28;11621;-67
2024/01/20 07:02:08;;;;;;;;;41.75;32.00;;;;;-0.10;87.68;102623.41;5022251;28;11583;-67
2024/01/20 07:04:35;;;;;;;;;43.50;39.00;;;;;-0.12;88.07;102630.59;5027727;28;11572;-68
2024/01/20 07:07:02;;;;;;;;;38.00;35.00;;;;;-0.08;87.63;102618.91;5026751;28;11601;-67
2024/01/20 07:09:28;;;;;;;;;63.75;43.00;;;;;-0.14;87.73;102627.16;5029509;28;11613;-66
2024/01/20 07:11:57;;;;;;;;;51.00;40.75;;;;;-0.17;88.03;102623.81;5019350;28;11591;-68
2024/01/20 07:14:25;;;;;;;;;43.00;33.25;;;;;-0.11;88.18;102623.50;5026549;28;11601;-68
2024/01/20 07:16:52;;;;;;;;;35.00;31.00;;;;;-0.06;87.58;102619.66;5025226;28;12600;-68
2024/01/20 07:19:19;;;;;;;;;45.25;35.75;;;;;-0.09;87.68;102622.47;5024099;28;11623;-67
2024/01/20 07:21:45;;;;;;;;;40.25;35.50;;;;;-0.13;88.09;102630.66;5029296;28;12249;-67
2024/01/20 07:24:12;;;;;;;;;32.25;28.50;;;;;-0.05;87.78;102626.66;5028309;28;12321;-67
2024/01/20 07:26:39;;;;;;;;;37.25;36.00;;;;;0.01;87.47;102622.84;5027239;28;11613;-66
2024/01/20 07:29:05;;;;;;;;;39.00;33.25;;;;;0.06;87.57;102635.84;5020769;28;11606;-68
2024/01/20 07:31:32;;;;;;;;;38.25;32.50;;;;;0.09;87.45;102622.44;5026534;28;11579;-67
2024/01/20 07:33:58;;;;;;;;;33.75;30.00;;;;;0.16;87.76;102627.34;5024276;28;12416;-67
2024/01/20 07:36:25;;;;;;;;;40.75;32.50;;;;;0.12;87.50;102623.13;5008063;28;11622;-66
2024/01/20 07:38:52;;;;;;;;;40.50;33.50;;;;;0.14;87.16;102625.69;5030820;28;11600;-66
2024/01/20 07:41:18;;;;;;;;;38.50;31.00;;;;;0.17;86.94;102621.09;5026880;28;11688;-67
2024/01/20 07:43:45;;;;;;;;;40.00;31.50;;;;;0.14;87.17;102625.69;5029374;28;11582;-67
2024/01/20 07:46:12;;;;;;;;;35.00;29.00;;;;;0.16;87.25;102623.81;5027134;28;11600;-66
2024/01/20 07:48:39;;;;;;;;;32.75;31.00;;;;;0.19;87.45;102629.78;5032787;28;11600;-68
2024/01/20 07:51:07;;;;;;;;;33.25;31.50;;;;;0.17;87.33;102626.38;5026695;28;11561;-66
2024/01/20 07:53:33;;;;;;;;;33.50;30.75;;;;;0.17;87.05;102623.75;5032971;28;11596;-67
2024/01/20 07:56:00;;;;;;;;;42.50;34.00;;;;;0.18;86.94;102627.25;5029538;28;11586;-64
2024/01/20 07:58:26;;;;;;;;;28.50;24.50;;;;;0.21;87.25;102632.38;5029719;28;11710;-67
2024/01/20 08:00:53;;;;;;;;;34.25;30.25;;;;;0.20;87.14;102631.53;5026134;28;11571;-67
2024/01/20 08:03:20;;;;;;;;;32.25;26.25;;;;;0.21;86.78;102635.03;5028682;28;11618;-66
2024/01/20 08:05:46;;;;;;;;;40.00;36.00;;;;;0.11;87.57;102642.59;5031521;28;11614;-65
2024/01/20 08:08:13;;;;;;;;;34.25;30.25;;;;;0.13;87.86;102646.03;5032684;28;11582;-66
2024/01/20 08:10:40;;;;;;;;;35.25;32.50;;;;;0.13;87.53;102650.47;5032758;28;11621;-68
2024/01/20 08:13:06;;;;;;;;;34.00;24.75;;;;;0.15;87.34;102649.44;5031576;28;12353;-67
2024/01/20 08:15:33;;;;;;;;;35.50;31.25;;;;;0.22;87.99;102648.19;5009544;28;11626;-68
2024/01/20 08:18:00;;;;;;;;;41.00;36.75;;;;;0.27;87.25;102652.38;5027218;28;11696;-68
2024/01/20 08:20:27;;;;;;;;;48.00;40.75;;;;;0.26;87.50;102655.97;5014606;28;11631;-67
2024/01/20 08:22:54;;;;;;;;;43.50;35.50;;;;;0.21;87.22;102654.41;5022202;28;11723;-68
2024/01/20 08:25:20;;;;;;;;;33.75;31.50;;;;;0.24;87.04;102656.03;5025235;28;11594;-68
2024/01/20 08:27:47;;;;;;;;;42.50;35.00;;;;;0.31;86.99;102654.75;5032370;28;11712;-66
2024/01/20 08:30:14;;;;;;;;;32.25;31.00;;;;;0.28;87.35;102657.56;5028187;28;11581;-67
2024/01/20 08:32:41;;;;;;;;;32.75;32.25;;;;;0.32;87.54;102659.13;5024304;28;11584;-68
2024/01/20 08:35:10;;;;;;;;;34.75;32.00;;;;;0.35;87.09;102664.25;5025052;28;11674;-68
2024/01/20 08:37:36;;;;;;;;;35.75;29.50;;;;;0.28;86.93;102664.66;5027598;28;12289;-68
2024/01/20 08:40:03;;;;;;;;;39.75;34.75;;;;;0.27;86.74;102660.31;5028643;28;11617;-68
2024/01/20 08:42:29;;;;;;;;;33.75;28.00;;;;;0.33;87.09;102674.09;5023808;28;11576;-66
2024/01/20 08:44:56;;;;;;;;;46.50;40.00;;;;;0.28;87.41;102669.97;5025447;28;11598;-66
2024/01/20 08:47:23;;;;;;;;;35.00;32.25;;;;;0.27;87.52;102671.75;5021159;28;11609;-66
2024/01/20 08:49:51;;;;;;;;;41.75;37.50;;;;;0.24;87.42;102667.50;5030218;28;11590;-67
2024/01/20 08:52:19;;;;;;;;;42.25;33.25;;;;;0.26;87.88;102688.59;5029145;28;12354;-68
2024/01/20 08:54:46;;;;;;;;;45.00;38.25;;;;;0.28;87.63;102681.41;5029980;28;11593;-68
2024/01/20 08:57:13;;;;;;;;;49.00;40.25;;;;;0.27;87.75;102684.16;5022662;28;12394;-68
2024/01/20 08:59:40;;;;;;;;;45.75;30.75;;;;;0.25;88.27;102692.19;5018034;28;11602;-67
2024/01/20 09:02:07;;;;;;;;;42.50;35.50;;;;;0.25;87.73;102681.59;5022537;28;11615;-67
2024/01/20 09:04:34;;;;;;;;;44.25;35.25;;;;;0.27;87.86;102679.69;5030945;28;11635;-67
2024/01/20 09:07:01;;;;;;;;;38.75;31.00;;;;;0.33;87.68;102684.69;5028654;28;11579;-67
2024/01/20 09:09:28;;;;;;;;;45.25;39.50;;;;;0.40;87.91;102687.84;5025890;28;11611;-67
2024/01/20 09:11:54;;;;;;;;;53.75;45.50;;;;;0.39;87.97;102694.94;5029332;28;11616;-68
2024/01/20 09:14:21;;;;;;;;;33.50;27.25;;;;;0.42;87.44;102694.78;5017343;28;11590;-68
2024/01/20 09:16:48;;;;;;;;;37.25;31.25;;;;;0.36;88.10;102688.94;5025364;28;11749;-67
2024/01/20 09:19:15;;;;;;;;;56.75;43.75;;;;;0.36;88.21;102700.38;5027069;28;11592;-67
2024/01/20 09:21:47;;;;;;;;;49.25;39.00;;;;;0.34;88.59;102696.13;5018143;28;11568;-67
2024/01/20 09:24:13;;;;;;;;;47.75;43.50;;;;;0.45;88.10;102697.28;5024573;28;11693;-67
2024/01/20 09:26:40;;;;;;;;;47.50;41.00;;;;;0.38;87.76;102693.22;5019480;28;11724;-67
2024/01/20 09:29:08;;;;;;;;;55.00;43.50;;;;;0.46;88.21;102704.28;5029618;28;11567;-67
2024/01/20 09:31:34;;;;;;;;;48.50;39.25;;;;;0.45;88.01;102696.41;5025058;28;11638;-68
2024/01/20 09:34:01;;;;;;;;;44.50;39.25;;;;;0.57;87.99;102701.06;5028572;28;11595;-66
2024/01/20 09:36:28;;;;;;;;;52.75;37.25;;;;;0.63;88.03;102713.09;5023151;28;11596;-64
2024/01/20 09:38:55;;;;;;;;;43.25;38.50;;;;;0.71;87.53;102717.03;5027645;28;11607;-64
2024/01/20 09:41:22;;;;;;;;;36.50;34.75;;;;;0.78;87.56;102717.56;5023689;28;11695;-65
2024/01/20 09:43:49;;;;;;;;;52.00;43.00;;;;;0.81;87.35;102712.09;5023633;28;11589;-64
2024/01/20 09:46:16;;;;;;;;;51.50;44.00;;;;;0.86;86.67;102720.66;5025393;28;11595;-65
2024/01/20 09:48:44;;;;;;;;;54.25;47.00;;;;;0.88;86.73;102718.75;5029429;28;11577;-65
2024/01/20 09:51:12;;;;;;;;;47.25;41.50;;;;;0.80;87.13;102726.28;5027659;28;11620;-65
2024/01/20 09:53:39;;;;;;;;;52.25;43.50;;;;;0.76;87.14;102724.72;5024442;28;11703;-64
2024/01/20 09:56:06;;;;;;;;;49.75;44.00;;;;;0.81;87.28;102717.41;5026371;28;12341;-65
2024/01/20 09:58:35;;;;;;;;;45.25;40.75;;;;;0.86;87.20;102725.09;5018048;28;11657;-64
2024/01/20 10:01:02;;;;;;;;;54.25;46.50;;;;;0.85;87.10;102718.94;5024239;28;11595;-65
2024/01/20 10:03:34;;;;;;;;;59.75;43.25;;;;;0.80;87.44;102723.63;5017696;28;11574;-62
2024/01/20 10:06:00;;;;;;;;;49.75;41.50;;;;;0.73;87.54;102731.06;5024345;28;11611;-63
2024/01/20 10:08:27;;;;;;;;;51.75;43.00;;;;;0.83;87.72;102725.25;5024008;28;11601;-64
2024/01/20 10:11:04;;;;;;;;;56.00;42.00;;;;;0.81;87.94;102728.00;5030248;28;12303;-66
2024/01/20 10:13:31;;;;;;;;;54.75;44.25;;;;;0.81;87.89;102729.78;5022810;28;11591;-64
2024/01/20 10:15:57;;;;;;;;;43.25;41.75;;;;;0.92;87.79;102744.16;5027826;28;11752;-64
2024/01/20 10:18:24;;;;;;;;;47.00;42.00;;;;;0.89;87.80;102740.81;5031956;28;12369;-65
2024/01/20 10:21:04;;;;;;;;;38.75;33.25;;;;;0.92;87.50;102728.25;5032464;28;11665;-66
2024/01/20 10:23:33;;;;;;;;;58.50;42.25;;;;;1.04;87.77;102736.47;5030166;28;11682;-65
2024/01/20 10:26:01;;;;;;;;;44.00;39.00;;;;;1.13;87.40;102727.97;5031233;28;11650;-64
2024/01/20 10:28:28;;;;;;;;;55.50;44.75;;;;;1.17;86.87;102734.81;5010860;28;12298;-63
2024/01/20 10:30:55;;;;;;;;;50.25;41.75;;;;;1.22;87.24;102743.41;5031057;28;11599;-64
2024/01/20 10:33:22;;;;;;;;;37.50;35.00;;;;;1.26;87.24;102742.28;5026196;28;11630;-64
2024/01/20 10:35:50;;;;;;;;;49.75;42.50;;;;;1.33;86.68;102746.28;5011077;28;11719;-64
2024/01/20 10:38:21;;;;;;;;;43.75;36.75;;;;;1.21;86.57;102737.22;5011058;28;11667;-64
2024/01/20 10:40:53;;;;;;;;;39.25;38.25;;;;;1.35;86.52;102735.59;5010945;28;11643;-64
2024/01/20 10:43:20;;;;;;;;;46.75;35.00;;;;;1.46;86.29;102728.72;5014993;28;11715;-64
2024/01/20 10:46:11;;;;;;;;;49.00;42.25;;;;;1.34;85.67;102732.09;5024241;28;11996;-65
2024/01/20 10:48:44;;;;;;;;;39.50;32.25;;;;;1.43;85.91;102734.22;5025611;28;11750;-65
2024/01/20 10:51:14;;;;;;;;;47.25;35.75;;;;;1.53;85.53;102746.94;5012976;28;11578;-65
2024/01/20 10:53:42;;;;;;;;;36.00;31.75;;;;;1.48;85.21;102732.13;5031080;28;11658;-65
2024/01/20 10:56:10;;;;;;;;;39.75;33.25;;;;;1.36;85.87;102740.81;5028413;28;11806;-62
2024/01/20 10:58:46;;;;;;;;;38.75;37.50;;;;;1.40;85.80;102739.69;5029501;28;11619;-65
2024/01/20 11:01:13;;;;;;;;;40.00;34.25;;;;;1.48;85.33;102740.09;5025255;28;11607;-65
2024/01/20 11:03:40;;;;;;;;;37.50;35.00;;;;;1.42;85.09;102740.47;5030716;28;11581;-64
2024/01/20 11:06:18;;;;;;;;;38.50;31.75;;;;;1.43;85.29;102736.00;5025424;28;11605;-63
2024/01/20 11:08:52;;;;;;;;;49.50;36.75;;;;;1.44;85.26;102743.03;5027620;28;11576;-65
2024/01/20 11:11:20;;;;;;;;;44.25;30.50;;;;;1.35;85.20;102735.59;5024307;28;11612;-65
2024/01/20 11:13:48;;;;;;;;;46.50;31.50;;;;;1.39;85.42;102731.81;5033853;28;11694;-65
2024/01/20 11:16:19;;;;;;;;;34.50;33.50;;;;;1.28;85.77;102729.78;5026905;28;11680;-65
2024/01/20 11:18:46;;;;;;;;;35.75;30.00;;;;;1.36;85.23;102729.34;5034828;28;11561;-66